createdAt,value
2018-11-20T00:01:08.815Z,75.60
2018-11-20T00:03:57.180Z,75.53
2018-11-20T00:06:36.612Z,75.49
2018-11-20T00:09:27.783Z,75.54
2018-11-20T00:12:23.161Z,75.61
2018-11-20T00:15:11.285Z,75.73
2018-11-20T00:18:13.709Z,75.68
2018-11-20T00:21:10.566Z,75.77
2018-11-20T00:23:58.898Z,75.84
2018-11-20T00:26:47.457Z,76.11
2018-11-20T00:29:47.414Z,76.42
2018-11-20T00:32:42.196Z,76.54
2018-11-20T00:35:50.379Z,76.72
2018-11-20T00:38:40.163Z,76.71
2018-11-20T00:41:39.332Z,76.83
2018-11-20T00:44:27.821Z,76.88
2018-11-20T00:47:16.552Z,76.89
2018-11-20T00:50:18.866Z,77.01
2018-11-20T00:53:07.440Z,76.96
2018-11-20T00:56:39.082Z,76.85
2018-11-20T00:59:27.346Z,76.76
2018-11-20T01:02:26.105Z,76.57
2018-11-20T01:05:24.296Z,76.54
2018-11-20T01:08:29.044Z,76.67
2018-11-20T01:11:19.090Z,76.65
2018-11-20T01:14:17.711Z,76.68
2018-11-20T01:17:13.855Z,76.55
2018-11-20T01:20:07.699Z,76.51
2018-11-20T01:22:48.372Z,76.26
2018-11-20T01:25:47.661Z,75.92
2018-11-20T01:28:35.719Z,75.77
2018-11-20T01:31:28.902Z,75.89
2018-11-20T01:34:36.715Z,75.81
2018-11-20T01:37:29.704Z,75.94
2018-11-20T01:40:28.733Z,76.13
2018-11-20T01:43:16.085Z,76.32
2018-11-20T01:46:16.739Z,76.64
2018-11-20T01:49:08.383Z,76.47
2018-11-20T01:51:58.025Z,76.59
2018-11-20T01:54:46.339Z,76.49
2018-11-20T01:57:48.132Z,76.50
2018-11-20T02:00:36.079Z,76.53
2018-11-20T02:03:26.518Z,76.37
2018-11-20T02:06:28.321Z,76.34
2018-11-20T02:09:25.456Z,76.37
2018-11-20T02:12:24.244Z,76.41
2018-11-20T02:15:12.912Z,76.37
2018-11-20T02:18:09.352Z,76.22
2018-11-20T02:21:09.474Z,76.18
2018-11-20T02:24:05.767Z,76.11
2018-11-20T02:27:04.857Z,75.88
2018-11-20T02:29:54.057Z,75.75
2018-11-20T02:32:42.404Z,75.81
2018-11-20T02:35:34.514Z,75.68
2018-11-20T02:38:22.817Z,75.75
2018-11-20T02:41:11.038Z,75.96
2018-11-20T02:44:01.074Z,75.91
2018-11-20T02:46:42.026Z,75.86
2018-11-20T02:49:46.735Z,75.52
2018-11-20T02:52:45.436Z,75.36
2018-11-20T02:55:49.606Z,74.76
2018-11-20T02:58:48.095Z,74.75
2018-11-20T03:01:44.199Z,74.75
2018-11-20T03:04:46.585Z,74.74
2018-11-20T03:07:35.382Z,74.91
2018-11-20T03:10:24.662Z,74.53
2018-11-20T03:13:33.381Z,74.25
2018-11-20T03:16:15.998Z,74.21
2018-11-20T03:18:56.535Z,73.84
2018-11-20T03:21:44.281Z,73.94
2018-11-20T03:24:42.544Z,73.81
2018-11-20T03:27:30.080Z,73.71
2018-11-20T03:31:00.959Z,73.58
2018-11-20T03:33:41.660Z,73.47
2018-11-20T03:36:34.248Z,73.35
2018-11-20T03:39:25.306Z,73.42
2018-11-20T03:42:17.695Z,73.59
2018-11-20T03:45:17.117Z,73.74
2018-11-20T03:48:06.187Z,73.88
2018-11-20T03:51:01.850Z,73.78
2018-11-20T03:54:00.324Z,73.95
2018-11-20T03:56:56.388Z,73.84
2018-11-20T03:59:48.826Z,73.63
2018-11-20T04:02:42.265Z,73.42
2018-11-20T04:05:30.764Z,73.28
2018-11-20T04:08:30.430Z,73.03
2018-11-20T04:11:19.692Z,72.69
2018-11-20T04:14:16.678Z,72.43
2018-11-20T04:17:05.171Z,72.08
2018-11-20T04:19:51.941Z,71.74
2018-11-20T04:22:56.630Z,71.12
2018-11-20T04:26:00.275Z,69.19
2018-11-20T04:28:59.317Z,67.07
2018-11-20T04:32:13.619Z,66.62
2018-11-20T04:35:17.705Z,65.75
2018-11-20T04:38:31.839Z,65.32
2018-11-20T04:41:11.783Z,65.29
2018-11-20T04:44:07.746Z,64.71
2018-11-20T04:46:56.343Z,65.31
2018-11-20T04:49:52.055Z,65.23
2018-11-20T04:52:34.050Z,65.60
2018-11-20T04:55:23.773Z,65.54
2018-11-20T04:58:14.613Z,65.69
2018-11-20T05:01:21.584Z,65.90
2018-11-20T05:04:15.462Z,66.39
2018-11-20T05:07:13.845Z,66.44
2018-11-20T05:10:17.756Z,66.48
2018-11-20T05:13:05.678Z,66.48
2018-11-20T05:16:07.977Z,66.72
2018-11-20T05:18:57.749Z,66.61
2018-11-20T05:21:41.154Z,66.65
2018-11-20T05:24:34.754Z,66.45
2018-11-20T05:27:13.321Z,66.84
2018-11-20T05:30:09.615Z,66.88
2018-11-20T05:33:11.212Z,66.93
2018-11-20T05:36:00.530Z,66.65
2018-11-20T05:39:05.838Z,67.01
2018-11-20T05:42:07.985Z,67.14
2018-11-20T05:44:58.098Z,67.31
2018-11-20T05:47:43.411Z,67.58
2018-11-20T05:50:32.308Z,67.45
2018-11-20T05:53:21.514Z,67.29
2018-11-20T05:56:17.662Z,67.75
2018-11-20T05:58:55.975Z,67.88
2018-11-20T06:01:54.884Z,68.29
2018-11-20T06:04:43.627Z,68.15
2018-11-20T06:07:22.258Z,68.57
2018-11-20T06:10:11.100Z,68.23
2018-11-20T06:13:11.533Z,68.58
2018-11-20T06:15:59.772Z,68.52
2018-11-20T06:18:49.551Z,68.70
2018-11-20T06:21:38.888Z,68.82
2018-11-20T06:24:32.288Z,68.88
2018-11-20T06:27:21.031Z,69.24
2018-11-20T06:30:10.413Z,69.17
2018-11-20T06:32:50.624Z,69.16
2018-11-20T06:35:32.074Z,69.43
2018-11-20T06:38:21.452Z,69.54
2018-11-20T06:41:17.338Z,69.51
2018-11-20T06:44:01.361Z,69.51
2018-11-20T06:46:55.521Z,69.23
2018-11-20T06:49:39.012Z,69.41
2018-11-20T06:52:27.444Z,69.54
2018-11-20T06:55:27.733Z,69.72
2018-11-20T06:58:09.080Z,69.61
2018-11-20T07:01:06.098Z,70.01
2018-11-20T07:03:56.199Z,70.08
2018-11-20T07:06:45.003Z,69.97
2018-11-20T07:09:31.997Z,69.85
2018-11-20T07:12:21.008Z,70.08
2018-11-20T07:15:09.943Z,69.85
2018-11-20T07:17:57.990Z,69.91
2018-11-20T07:20:46.681Z,70.11
2018-11-20T07:23:45.820Z,70.21
2018-11-20T07:26:44.320Z,70.28
2018-11-20T07:29:42.817Z,70.06
2018-11-20T07:32:42.577Z,70.09
2018-11-20T07:35:41.360Z,70.32
2018-11-20T07:38:49.407Z,70.32
2018-11-20T07:41:42.381Z,70.36
2018-11-20T07:44:31.093Z,70.07
2018-11-20T07:47:14.996Z,70.47
2018-11-20T07:49:59.425Z,70.47
2018-11-20T07:52:47.791Z,70.18
2018-11-20T07:55:51.333Z,70.21
2018-11-20T07:58:53.261Z,70.19
2018-11-20T08:01:36.615Z,70.17
2018-11-20T08:04:19.897Z,70.40
2018-11-20T08:07:03.217Z,70.43
2018-11-20T08:09:49.873Z,70.34
2018-11-20T08:12:39.630Z,70.46
2018-11-20T08:15:32.148Z,70.25
2018-11-20T08:18:22.476Z,70.29
2018-11-20T08:21:12.709Z,69.86
2018-11-20T08:24:01.380Z,70.21
2018-11-20T08:26:44.869Z,70.34
2018-11-20T08:29:34.061Z,70.43
2018-11-20T08:32:33.316Z,70.30
2018-11-20T08:35:15.068Z,69.88
2018-11-20T08:38:03.572Z,70.11
2018-11-20T08:41:04.411Z,70.00
2018-11-20T08:44:00.395Z,70.27
2018-11-20T08:46:43.429Z,70.63
2018-11-20T08:49:46.025Z,70.57
2018-11-20T08:52:34.551Z,70.48
2018-11-20T08:55:35.081Z,70.51
2018-11-20T08:58:30.702Z,70.48
2018-11-20T09:01:22.311Z,70.43
2018-11-20T09:04:18.084Z,70.36
2018-11-20T09:07:06.711Z,70.20
2018-11-20T09:09:59.404Z,70.26
2018-11-20T09:12:52.285Z,70.46
2018-11-20T09:15:41.016Z,70.38
2018-11-20T09:18:45.705Z,70.33
2018-11-20T09:21:25.146Z,70.19
2018-11-20T09:24:33.142Z,70.17
2018-11-20T09:27:31.989Z,70.16
2018-11-20T09:30:12.101Z,69.96
2018-11-20T09:32:54.380Z,69.89
2018-11-20T09:35:47.008Z,70.08
2018-11-20T09:38:37.022Z,70.21
2018-11-20T09:41:32.652Z,70.20
2018-11-20T09:44:57.049Z,70.31
2018-11-20T09:47:41.717Z,69.96
2018-11-20T09:50:26.182Z,69.94
2018-11-20T09:53:27.981Z,69.88
2018-11-20T09:56:33.812Z,70.11
2018-11-20T09:59:15.066Z,70.29
2018-11-20T10:01:55.320Z,70.17
2018-11-20T10:04:43.493Z,70.10
2018-11-20T10:07:40.205Z,70.17
2018-11-20T10:10:44.210Z,70.13
2018-11-20T10:13:34.412Z,70.10
2018-11-20T10:16:39.779Z,69.99
2018-11-20T10:19:33.129Z,69.96
2018-11-20T10:22:38.267Z,70.10
2018-11-20T10:25:31.273Z,70.24
2018-11-20T10:28:20.350Z,70.04
2018-11-20T10:31:09.148Z,69.98
2018-11-20T10:34:08.498Z,69.89
2018-11-20T10:36:56.673Z,70.20
2018-11-20T10:39:46.098Z,70.16
2018-11-20T10:42:45.001Z,69.96
2018-11-20T10:45:33.535Z,70.27
2018-11-20T10:48:25.347Z,69.94
2018-11-20T10:51:14.207Z,70.04
2018-11-20T10:54:13.289Z,69.74
2018-11-20T10:57:05.740Z,69.19
2018-11-20T11:00:04.494Z,68.79
2018-11-20T11:02:53.099Z,68.42
2018-11-20T11:05:51.492Z,68.43
2018-11-20T11:08:40.994Z,68.35
2018-11-20T11:11:22.678Z,68.07
2018-11-20T11:14:12.211Z,68.03
2018-11-20T11:17:11.110Z,67.70
2018-11-20T11:19:59.304Z,67.91
2018-11-20T11:22:47.768Z,67.54
2018-11-20T11:25:35.972Z,68.00
2018-11-20T11:28:32.766Z,67.92
2018-11-20T11:31:22.758Z,67.65
2018-11-20T11:34:21.422Z,67.77
2018-11-20T11:37:00.024Z,68.12
2018-11-20T11:39:43.202Z,68.15
2018-11-20T11:42:27.114Z,68.11
2018-11-20T11:45:29.197Z,68.01
2018-11-20T11:48:15.058Z,68.33
2018-11-20T11:51:05.040Z,68.32
2018-11-20T11:53:43.569Z,68.14
2018-11-20T11:56:31.775Z,67.92
2018-11-20T11:59:31.038Z,68.06
2018-11-20T12:05:08.583Z,67.99
2018-11-20T12:08:01.679Z,68.23
2018-11-20T12:10:50.701Z,68.18
2018-11-20T12:13:39.847Z,68.02
2018-11-20T12:16:29.605Z,68.32
2018-11-20T12:19:19.230Z,68.51
2018-11-20T12:22:07.424Z,68.42
2018-11-20T12:25:02.859Z,68.23
2018-11-20T12:27:53.043Z,68.31
2018-11-20T12:30:55.488Z,68.40
2018-11-20T12:33:41.986Z,68.12
2018-11-20T12:36:32.807Z,67.61
2018-11-20T12:39:21.811Z,68.12
2018-11-20T12:42:00.326Z,68.01
2018-11-20T12:44:48.743Z,68.41
2018-11-20T12:47:37.542Z,68.53
2018-11-20T12:50:30.438Z,68.62
2018-11-20T12:53:25.981Z,68.87
2018-11-20T12:56:34.408Z,68.87
2018-11-20T12:59:40.033Z,69.10
2018-11-20T13:02:30.821Z,69.32
2018-11-20T13:05:25.127Z,69.62
2018-11-20T13:08:18.028Z,69.78
2018-11-20T13:11:22.981Z,69.81
2018-11-20T13:14:28.923Z,69.85
2018-11-20T13:17:19.678Z,70.22
2018-11-20T13:20:08.223Z,69.93
2018-11-20T13:23:16.558Z,69.82
2018-11-20T13:27:46.667Z,70.16
2018-11-20T13:30:41.633Z,70.13
2018-11-20T13:33:31.948Z,69.76
2018-11-20T13:36:19.918Z,69.41
2018-11-20T13:39:07.288Z,69.31
2018-11-20T13:42:06.944Z,69.55
2018-11-20T13:45:05.635Z,69.39
2018-11-20T13:48:12.624Z,69.32
2018-11-20T13:51:14.070Z,69.53
2018-11-20T13:54:14.987Z,69.82
2018-11-20T13:57:09.779Z,69.88
2018-11-20T14:00:01.402Z,69.57
2018-11-20T14:02:46.467Z,69.40
2018-11-20T14:05:27.514Z,69.32
2018-11-20T14:08:21.552Z,69.55
2018-11-20T14:11:09.804Z,69.56
2018-11-20T14:14:01.271Z,69.70
2018-11-20T14:16:50.133Z,69.83
2018-11-20T14:19:38.400Z,69.26
2018-11-20T14:22:25.907Z,69.44
2018-11-20T14:25:14.635Z,69.49
2018-11-20T14:28:08.886Z,69.75
2018-11-20T14:31:10.098Z,69.86
2018-11-20T14:33:58.957Z,69.92
2018-11-20T14:36:53.828Z,69.81
2018-11-20T14:39:57.969Z,69.79
2018-11-20T14:42:42.674Z,69.72
2018-11-20T14:45:31.961Z,69.63
2018-11-20T14:48:32.908Z,69.93
2018-11-20T14:51:11.746Z,69.98
2018-11-20T14:54:03.431Z,70.00
2018-11-20T14:56:55.959Z,69.91
2018-11-20T14:59:43.568Z,70.04
2018-11-20T15:02:50.962Z,70.33
2018-11-20T15:05:38.916Z,70.37
2018-11-20T15:08:26.751Z,70.17
2018-11-20T15:11:14.516Z,70.24
2018-11-20T15:14:02.501Z,70.54
2018-11-20T15:17:03.543Z,70.46
2018-11-20T15:20:02.390Z,70.54
2018-11-20T15:22:57.328Z,70.63
2018-11-20T15:25:48.891Z,70.15
2018-11-20T15:28:37.044Z,70.11
2018-11-20T15:31:26.704Z,70.45
2018-11-20T15:34:16.096Z,70.44
2018-11-20T15:37:03.513Z,70.38
2018-11-20T15:40:07.741Z,70.50
2018-11-20T15:42:56.804Z,70.66
2018-11-20T15:45:42.736Z,70.56
2018-11-20T15:48:41.354Z,70.49
2018-11-20T15:51:29.394Z,70.82
2018-11-20T15:54:30.952Z,70.74
2018-11-20T15:57:21.219Z,70.82
2018-11-20T16:00:13.104Z,70.82
2018-11-20T16:03:00.850Z,70.97
2018-11-20T16:05:48.364Z,71.01
2018-11-20T16:08:36.761Z,70.98
2018-11-20T16:11:38.087Z,71.12
2018-11-20T16:14:26.969Z,71.11
2018-11-20T16:17:18.748Z,71.11
2018-11-20T16:20:23.576Z,70.89
2018-11-20T16:23:11.489Z,70.74
2018-11-20T16:26:03.647Z,71.13
2018-11-20T16:28:51.588Z,71.42
2018-11-20T16:31:41.256Z,71.85
2018-11-20T16:34:37.155Z,71.72
2018-11-20T16:37:25.821Z,71.53
2018-11-20T16:40:11.308Z,71.38
2018-11-20T16:43:19.224Z,71.30
2018-11-20T16:46:17.686Z,70.92
2018-11-20T16:49:05.745Z,71.11
2018-11-20T16:52:00.431Z,71.70
2018-11-20T16:54:49.287Z,71.76
2018-11-20T16:57:53.459Z,72.30
2018-11-20T17:00:42.162Z,72.41
2018-11-20T17:03:29.899Z,72.93
2018-11-20T17:06:22.012Z,72.47
2018-11-20T17:09:09.764Z,72.65
2018-11-20T17:11:57.390Z,72.42
2018-11-20T17:14:48.987Z,72.56
2018-11-20T17:17:36.488Z,72.57
2018-11-20T17:20:34.206Z,72.18
2018-11-20T17:23:22.532Z,71.89
2018-11-20T17:26:14.076Z,71.97
2018-11-20T17:29:09.059Z,71.64
2018-11-20T17:31:56.945Z,71.74
2018-11-20T17:35:01.540Z,71.72
2018-11-20T17:37:49.565Z,71.74
2018-11-20T17:40:49.938Z,71.13
2018-11-20T17:43:37.820Z,71.41
2018-11-20T17:46:26.078Z,71.35
2018-11-20T17:49:21.175Z,71.40
2018-11-20T17:52:28.141Z,71.37
2018-11-20T17:55:10.182Z,71.43
2018-11-20T17:57:57.556Z,71.46
2018-11-20T18:00:37.704Z,71.51
2018-11-20T18:03:27.029Z,71.76
2018-11-20T18:06:14.409Z,72.25
2018-11-20T18:09:03.355Z,72.82
2018-11-20T18:11:58.141Z,73.00
2018-11-20T18:14:39.722Z,73.00
2018-11-20T18:17:27.535Z,72.85
2018-11-20T18:20:31.733Z,72.86
2018-11-20T18:23:20.734Z,73.02
2018-11-20T18:26:13.293Z,72.89
2018-11-20T18:29:01.433Z,72.85
2018-11-20T18:32:05.279Z,72.85
2018-11-20T18:34:53.259Z,72.58
2018-11-20T18:37:55.110Z,72.28
2018-11-20T18:40:44.511Z,72.54
2018-11-20T18:43:32.622Z,72.81
2018-11-20T18:46:25.018Z,72.54
2018-11-20T18:49:16.459Z,72.83
2018-11-20T18:52:05.152Z,72.72
2018-11-20T18:54:58.065Z,72.84
2018-11-20T18:57:49.614Z,72.58
2018-11-20T19:00:38.324Z,72.64
2018-11-20T19:03:30.633Z,72.83
2018-11-20T19:06:20.459Z,72.73
2018-11-20T19:09:18.870Z,72.70
2018-11-20T19:12:06.390Z,72.66
2018-11-20T19:14:54.939Z,72.51
2018-11-20T19:17:47.945Z,72.34
2018-11-20T19:20:36.829Z,72.28
2018-11-20T19:23:28.703Z,72.64
2018-11-20T19:26:22.582Z,72.88
2018-11-20T19:29:30.900Z,72.77
2018-11-20T19:32:13.617Z,72.70
2018-11-20T19:35:05.077Z,72.73
2018-11-20T19:38:03.039Z,72.97
2018-11-20T19:40:55.141Z,73.04
2018-11-20T19:43:47.021Z,73.13
2018-11-20T19:46:36.244Z,73.11
2018-11-20T19:49:14.844Z,73.11
2018-11-20T19:52:02.869Z,72.99
2018-11-20T19:54:51.061Z,73.23
2018-11-20T19:57:43.256Z,73.18
2018-11-20T20:00:32.346Z,73.22
2018-11-20T20:03:24.575Z,73.38
2018-11-20T20:06:16.697Z,73.52
2018-11-20T20:09:20.422Z,73.41
2018-11-20T20:12:27.500Z,73.23
2018-11-20T20:15:20.419Z,73.19
2018-11-20T20:18:08.635Z,73.32
2018-11-20T20:21:10.536Z,73.25
2018-11-20T20:24:07.305Z,73.32
2018-11-20T20:26:52.873Z,73.38
2018-11-20T20:29:40.703Z,73.36
2018-11-20T20:32:20.142Z,73.38
2018-11-20T20:35:26.975Z,73.18
2018-11-20T20:38:16.687Z,73.04
2018-11-20T20:41:05.594Z,72.94
2018-11-20T20:43:58.073Z,73.23
2018-11-20T20:46:55.119Z,73.29
2018-11-20T20:49:51.385Z,73.32
2018-11-20T20:52:39.026Z,73.15
2018-11-20T20:55:26.835Z,73.06
2018-11-20T20:58:14.501Z,72.92
2018-11-20T21:01:06.486Z,72.82
2018-11-20T21:04:02.726Z,72.76
2018-11-20T21:06:45.857Z,72.84
2018-11-20T21:09:33.924Z,72.79
2018-11-20T21:12:20.280Z,72.78
2018-11-20T21:15:20.977Z,72.84
2018-11-20T21:18:10.940Z,72.73
2018-11-20T21:21:05.897Z,72.53
2018-11-20T21:23:55.546Z,72.57
2018-11-20T21:26:40.821Z,72.55
2018-11-20T21:29:26.746Z,72.47
2018-11-20T21:32:12.628Z,72.29
2018-11-20T21:34:59.823Z,72.40
2018-11-20T21:37:49.004Z,72.20
2018-11-20T21:40:37.500Z,72.11
2018-11-20T21:43:27.356Z,72.08
2018-11-20T21:46:16.099Z,71.90
2018-11-20T21:49:12.193Z,71.83
2018-11-20T21:52:16.367Z,71.94
2018-11-20T21:54:54.283Z,71.67
2018-11-20T21:57:52.839Z,71.59
2018-11-20T22:00:55.823Z,71.68
2018-11-20T22:03:50.502Z,71.74
2018-11-20T22:06:41.578Z,71.75
2018-11-20T22:09:33.406Z,71.83
2018-11-20T22:12:39.121Z,71.68
2018-11-20T22:15:43.712Z,71.95
2018-11-20T22:18:31.566Z,71.98
2018-11-20T22:21:29.375Z,71.73
2018-11-20T22:24:17.028Z,71.71
2018-11-20T22:27:08.833Z,71.68
2018-11-20T22:30:01.004Z,71.79
2018-11-20T22:32:52.557Z,71.63
2018-11-20T22:35:47.500Z,71.75
2018-11-20T22:38:41.344Z,71.67
2018-11-20T22:41:29.046Z,71.71
2018-11-20T22:44:23.145Z,71.69
2018-11-20T22:47:12.732Z,71.77
2018-11-20T22:49:59.643Z,71.85
2018-11-20T22:52:52.849Z,71.90
2018-11-20T22:55:40.497Z,72.05
2018-11-20T22:58:35.727Z,72.05
2018-11-20T23:01:27.481Z,71.88
2018-11-20T23:04:14.767Z,72.04
2018-11-20T23:07:10.213Z,72.09
2018-11-20T23:09:40.838Z,72.06
2018-11-20T23:12:17.404Z,72.10
2018-11-20T23:14:49.080Z,72.05
2018-11-20T23:17:24.967Z,72.22
2018-11-20T23:19:55.241Z,72.09
2018-11-20T23:22:28.266Z,72.17
2018-11-20T23:24:59.193Z,72.13
2018-11-20T23:27:29.307Z,71.83
2018-11-20T23:29:59.602Z,71.97
2018-11-20T23:32:29.513Z,72.00
2018-11-20T23:35:00.444Z,72.11
2018-11-20T23:37:30.257Z,71.96
2018-11-20T23:40:00.499Z,72.02
2018-11-20T23:42:32.219Z,72.14
2018-11-20T23:45:02.087Z,72.22
2018-11-20T23:47:32.174Z,72.25
2018-11-20T23:50:02.841Z,72.08
2018-11-20T23:52:32.891Z,72.03
2018-11-20T23:55:02.818Z,72.14
2018-11-20T23:57:32.682Z,72.36
